x

Molasses Reef, Fl (mlrf1) Weather Station

2:00am - Sun 11th Dec 2016 All times are EST. -5 hours from GMT.

  • Wind
    32mph, 38mph gusts
  • Sea Temp 78°f
  • Air Temp 74°f
  • Sea Pressure 1020.4mb
  • Molasses Reef, Fl
  • Molasses Reef, Fl

More Historic Weather Station data

Upgrade to MSW Pro to gain access to the past 30 days of data for over 8000 Wavebouys and Weather Stations around the globe.

Join Pro

Comparision Forecast

View Surf forecast
   
Sun 12/11 2:00am 32 38 mph 1020.4mb 78f 74f
1:00am 29 32 mph 1021.1mb 78f 76f
12:00am 34
mph
- - -
Sat 12/10 11:00pm 28 33 mph 1021.9mb 78f 76f
8:00pm 25 28 mph 1021.4mb 78f 73f
6:00pm 28
mph
- - 74f
5:00pm 23 28 mph 1020.9mb 78f 76f
3:00pm 26
mph
1020.2mb - 71f
2:00pm 18 21 mph 1021mb 78f 71f
1:00pm 22 24 mph 1021.2mb 78f 73f
12:00pm 21 23 mph 1022.5mb 78f 73f
11:00am 22 23 mph 1023.2mb 78f 73f
10:00am 18
mph
1023.7mb 78f 72f
9:00am 17 18 mph 1023.3mb 78f 70f
8:00am 18 21 mph 1023mb 78f 69f
7:00am 17 18 mph 1022.6mb 78f 70f
6:00am 18 20 mph 1021.9mb 78f 69f
5:00am 17 20 mph 1021.7mb 78f 68f
4:00am 18 21 mph 1021.7mb 78f 68f
3:00am 17 20 mph 1021.6mb 78f 67f
2:00am 16 17 mph 1021.9mb 78f 68f
1:00am 17 20 mph 1022.2mb 78f 67f
12:00am 20 21 mph 1022.4mb 78f 67f
Fri 12/09 11:00pm 22 25 mph 1022.3mb 78f 68f
10:00pm 23 25 mph 1022.3mb 78f 69f
9:00pm 21 23 mph 1022mb 78f 70f
8:00pm 22 24 mph 1021.4mb 78f 77f
7:00pm 23 25 mph 1021.2mb - 77f
6:00pm 21 23 mph 1020.9mb 78f 77f
5:00pm 24 25 mph 1020.2mb 79f 77f
4:00pm 24 25 mph 1019.9mb 79f 77f
3:00pm 23 26 mph 1019.6mb 79f 77f
2:00pm 25 28 mph 1019.6mb 79f 77f
1:00pm 28 32 mph 1019.7mb 79f 75f
12:00pm 25 29 mph 1020.5mb 79f 74f
11:00am 23 24 mph 1021.3mb 79f 73f
10:00am 22 24 mph 1021.8mb 79f 72f
9:00am 23 26 mph 1021.2mb 79f 71f
8:00am 20 21 mph 1020.7mb 79f 70f
7:00am 21 23 mph 1020mb 79f 71f
6:00am 20 21 mph 1019.4mb 79f 72f
5:00am 17 20 mph 1018.8mb 79f 73f
4:00am 18
mph
- - -
Thu 12/08 8:00pm 5 6 mph 1019.1mb 80f 78f
7:00pm 2 3 mph 1018.8mb 80f 78f
6:00pm  -  mph 1018.3mb 80f 78f
5:00pm 2
mph
1017.6mb 80f 79f
4:00pm 5
mph
- - -
3:00pm 8 9 mph 1017.2mb 80f 79f
2:00pm 5 6 mph 1017.4mb 79f 79f
1:00pm 5
mph
1018.3mb 79f 79f
12:00pm 3 5 mph 1019.3mb 79f 79f
11:00am 5 6 mph 1020mb 79f 79f
10:00am 5 6 mph 1020.2mb 79f 79f
9:00am 7
mph
1019.7mb 79f 78f
8:00am 6
mph
1019mb 79f 78f
4:00am 2 3 mph 1017.5mb 79f 78f
2:00am 1
mph
1017.9mb 79f 78f
Wed 12/07 11:00pm 3
mph
1018.8mb - 78f
10:00pm 11 14 mph 1018.8mb 80f 76f
8:00pm  -  mph 1018.8mb 80f 79f
7:00pm  -  1 mph 1018.1mb 80f 79f
6:00pm 2 3 mph 1017.4mb 80f 79f
4:00pm 2 3 mph 1016.5mb 80f 81f
3:00pm  -  mph 1016.4mb 80f 81f
2:00pm 2
mph
1016.4mb 80f 79f
1:00pm 5 6 mph 1016.7mb 80f 79f